sensor_id;sensor_type;location;lat;lon;timestamp;pressure;altitude;pressure_sealevel;temperature;humidity
58367;BME280;57745;42.524;12.052;2022-08-19T00:01:50;96195.91;;;29.43;52.24
58367;BME280;57745;42.524;12.052;2022-08-19T00:04:18;96193.50;;;29.39;52.32
58367;BME280;57745;42.524;12.052;2022-08-19T00:06:45;96175.06;;;29.44;52.33
58367;BME280;57745;42.524;12.052;2022-08-19T00:09:14;96162.78;;;29.39;52.73
58367;BME280;57745;42.524;12.052;2022-08-19T00:11:40;96159.75;;;29.37;52.83
58367;BME280;57745;42.524;12.052;2022-08-19T00:14:08;96186.81;;;29.42;52.38
58367;BME280;57745;42.524;12.052;2022-08-19T00:16:35;96195.56;;;29.39;52.64
58367;BME280;57745;42.524;12.052;2022-08-19T00:19:02;96181.94;;;29.43;52.66
58367;BME280;57745;42.524;12.052;2022-08-19T00:21:28;96161.47;;;29.40;52.74
58367;BME280;57745;42.524;12.052;2022-08-19T00:23:54;96153.09;;;29.40;52.46
58367;BME280;57745;42.524;12.052;2022-08-19T00:26:21;96152.16;;;29.38;52.35
58367;BME280;57745;42.524;12.052;2022-08-19T00:28:47;96145.47;;;29.41;52.23
58367;BME280;57745;42.524;12.052;2022-08-19T00:31:12;96174.69;;;29.40;52.68
58367;BME280;57745;42.524;12.052;2022-08-19T00:33:38;96164.09;;;29.38;52.86
58367;BME280;57745;42.524;12.052;2022-08-19T00:36:06;96143.22;;;29.39;52.54
58367;BME280;57745;42.524;12.052;2022-08-19T00:38:33;96123.06;;;29.33;52.88
58367;BME280;57745;42.524;12.052;2022-08-19T00:40:58;96123.44;;;29.37;52.74
58367;BME280;57745;42.524;12.052;2022-08-19T00:43:26;96130.56;;;29.38;52.60
58367;BME280;57745;42.524;12.052;2022-08-19T00:45:52;96129.44;;;29.41;52.21
58367;BME280;57745;42.524;12.052;2022-08-19T00:48:18;96137.22;;;29.35;52.67
58367;BME280;57745;42.524;12.052;2022-08-19T00:50:44;96130.56;;;29.38;52.51
58367;BME280;57745;42.524;12.052;2022-08-19T00:53:12;96128.31;;;29.44;52.19
58367;BME280;57745;42.524;12.052;2022-08-19T00:55:40;96132.06;;;29.39;52.59
58367;BME280;57745;42.524;12.052;2022-08-19T00:58:11;96141.00;;;29.38;52.55
58367;BME280;57745;42.524;12.052;2022-08-19T01:00:37;96142.81;;;29.43;52.55
58367;BME280;57745;42.524;12.052;2022-08-19T01:03:09;96138.72;;;29.44;52.09
58367;BME280;57745;42.524;12.052;2022-08-19T01:05:36;96129.81;;;29.38;52.37
58367;BME280;57745;42.524;12.052;2022-08-19T01:08:05;96130.94;;;29.42;52.08
58367;BME280;57745;42.524;12.052;2022-08-19T01:10:33;96141.91;;;29.40;52.35
58367;BME280;57745;42.524;12.052;2022-08-19T01:13:01;96144.31;;;29.36;52.30
58367;BME280;57745;42.524;12.052;2022-08-19T01:15:32;96143.56;;;29.36;52.15
58367;BME280;57745;42.524;12.052;2022-08-19T01:18:06;96150.13;;;29.38;52.22
58367;BME280;57745;42.524;12.052;2022-08-19T01:20:32;96155.69;;;29.38;52.44
58367;BME280;57745;42.524;12.052;2022-08-19T01:23:00;96165.72;;;29.34;52.16
58367;BME280;57745;42.524;12.052;2022-08-19T01:25:39;96159.94;;;29.31;52.36
58367;BME280;57745;42.524;12.052;2022-08-19T01:28:06;96153.44;;;29.29;52.14
58367;BME280;57745;42.524;12.052;2022-08-19T01:30:35;96149.91;;;29.36;52.44
58367;BME280;57745;42.524;12.052;2022-08-19T01:33:02;96156.59;;;29.25;52.60
58367;BME280;57745;42.524;12.052;2022-08-19T01:35:31;96160.69;;;29.32;52.05
58367;BME280;57745;42.524;12.052;2022-08-19T01:38:03;96164.03;;;29.30;52.48
58367;BME280;57745;42.524;12.052;2022-08-19T01:40:32;96155.84;;;29.33;52.36
58367;BME280;57745;42.524;12.052;2022-08-19T01:42:59;96154.53;;;29.34;52.38
58367;BME280;57745;42.524;12.052;2022-08-19T01:45:27;96154.19;;;29.29;52.28
58367;BME280;57745;42.524;12.052;2022-08-19T01:47:54;96167.56;;;29.31;52.35
58367;BME280;57745;42.524;12.052;2022-08-19T01:50:20;96167.75;;;29.33;52.27
58367;BME280;57745;42.524;12.052;2022-08-19T01:52:47;96158.44;;;29.30;52.27
58367;BME280;57745;42.524;12.052;2022-08-19T01:55:15;96163.66;;;29.34;52.20
58367;BME280;57745;42.524;12.052;2022-08-19T01:57:43;96151.75;;;29.34;52.50
58367;BME280;57745;42.524;12.052;2022-08-19T02:00:12;96155.84;;;29.33;52.18
58367;BME280;57745;42.524;12.052;2022-08-19T02:02:40;96170.75;;;29.35;52.01
58367;BME280;57745;42.524;12.052;2022-08-19T02:05:06;96169.06;;;29.32;52.41
58367;BME280;57745;42.524;12.052;2022-08-19T02:07:34;96164.41;;;29.35;52.16
58367;BME280;57745;42.524;12.052;2022-08-19T02:10:05;96171.84;;;29.32;52.13
58367;BME280;57745;42.524;12.052;2022-08-19T02:12:30;96164.59;;;29.37;52.37
58367;BME280;57745;42.524;12.052;2022-08-19T02:14:56;96161.81;;;29.29;52.28
58367;BME280;57745;42.524;12.052;2022-08-19T02:17:21;96168.72;;;29.28;52.23
58367;BME280;57745;42.524;12.052;2022-08-19T02:19:48;96171.13;;;29.31;52.32
58367;BME280;57745;42.524;12.052;2022-08-19T02:22:14;96176.34;;;29.27;52.43
58367;BME280;57745;42.524;12.052;2022-08-19T02:24:39;96170.00;;;29.35;52.21
58367;BME280;57745;42.524;12.052;2022-08-19T02:27:05;96173.00;;;29.29;52.34
58367;BME280;57745;42.524;12.052;2022-08-19T02:29:31;96170.38;;;29.31;52.13
58367;BME280;57745;42.524;12.052;2022-08-19T02:31:57;96176.72;;;29.24;52.26
58367;BME280;57745;42.524;12.052;2022-08-19T02:34:22;96177.44;;;29.32;51.99
58367;BME280;57745;42.524;12.052;2022-08-19T02:36:50;96185.28;;;29.26;52.16
58367;BME280;57745;42.524;12.052;2022-08-19T02:39:15;96191.63;;;29.26;52.24
58367;BME280;57745;42.524;12.052;2022-08-19T02:41:41;96189.75;;;29.29;51.84
58367;BME280;57745;42.524;12.052;2022-08-19T02:44:06;96200.34;;;29.23;52.27
58367;BME280;57745;42.524;12.052;2022-08-19T02:46:33;96210.97;;;29.24;52.26
58367;BME280;57745;42.524;12.052;2022-08-19T02:49:04;96222.88;;;29.25;51.78
58367;BME280;57745;42.524;12.052;2022-08-19T02:51:41;96231.28;;;29.25;52.03
58367;BME280;57745;42.524;12.052;2022-08-19T02:54:14;96228.66;;;29.27;52.16
58367;BME280;57745;42.524;12.052;2022-08-19T02:56:41;96232.75;;;29.26;51.82
58367;BME280;57745;42.524;12.052;2022-08-19T02:59:07;96237.41;;;29.31;51.53
58367;BME280;57745;42.524;12.052;2022-08-19T03:01:35;96232.22;;;29.27;51.76
58367;BME280;57745;42.524;12.052;2022-08-19T03:04:03;96225.28;;;29.21;51.92
58367;BME280;57745;42.524;12.052;2022-08-19T03:06:30;96232.75;;;29.26;51.74
58367;BME280;57745;42.524;12.052;2022-08-19T03:08:56;96240.03;;;29.29;51.72
58367;BME280;57745;42.524;12.052;2022-08-19T03:11:26;96239.28;;;29.28;51.83
58367;BME280;57745;42.524;12.052;2022-08-19T03:13:52;96245.22;;;29.33;51.67
58367;BME280;57745;42.524;12.052;2022-08-19T03:16:20;96241.53;;;29.30;51.69
58367;BME280;57745;42.524;12.052;2022-08-19T03:18:46;96241.53;;;29.30;51.57
58367;BME280;57745;42.524;12.052;2022-08-19T03:21:23;96245.63;;;29.29;51.57
58367;BME280;57745;42.524;12.052;2022-08-19T03:23:55;96241.69;;;29.32;51.64
58367;BME280;57745;42.524;12.052;2022-08-19T03:26:21;96239.09;;;29.26;51.60
58367;BME280;57745;42.524;12.052;2022-08-19T03:28:47;96237.41;;;29.23;51.83
58367;BME280;57745;42.524;12.052;2022-08-19T03:31:16;96236.84;;;29.25;51.43
58367;BME280;57745;42.524;12.052;2022-08-19T03:33:43;96241.50;;;29.22;51.73
58367;BME280;57745;42.524;12.052;2022-08-19T03:36:22;96246.69;;;29.18;51.83
58367;BME280;57745;42.524;12.052;2022-08-19T03:38:53;96246.34;;;29.14;51.76
58367;BME280;57745;42.524;12.052;2022-08-19T03:41:25;96248.56;;;29.16;51.83
58367;BME280;57745;42.524;12.052;2022-08-19T03:43:52;96247.44;;;29.19;51.55
58367;BME280;57745;42.524;12.052;2022-08-19T03:46:21;96259.75;;;29.23;51.38
58367;BME280;57745;42.524;12.052;2022-08-19T03:48:48;96240.56;;;29.20;51.27
58367;BME280;57745;42.524;12.052;2022-08-19T03:53:47;96236.66;;;29.15;51.61
58367;BME280;57745;42.524;12.052;2022-08-19T03:56:12;96243.53;;;29.14;51.39
58367;BME280;57745;42.524;12.052;2022-08-19T03:58:39;96253.22;;;29.21;51.26
58367;BME280;57745;42.524;12.052;2022-08-19T04:01:13;96250.22;;;29.19;51.26
58367;BME280;57745;42.524;12.052;2022-08-19T04:03:39;96253.41;;;29.15;51.04
58367;BME280;57745;42.524;12.052;2022-08-19T04:06:28;96259.19;;;29.17;51.13
58367;BME280;57745;42.524;12.052;2022-08-19T04:08:56;96265.84;;;29.07;51.27
58367;BME280;57745;42.524;12.052;2022-08-19T04:11:31;96247.06;;;29.15;50.99
58367;BME280;57745;42.524;12.052;2022-08-19T04:13:59;96242.03;;;29.13;51.15
58367;BME280;57745;42.524;12.052;2022-08-19T04:16:26;96239.25;;;29.13;50.93
58367;BME280;57745;42.524;12.052;2022-08-19T04:18:54;96228.81;;;29.06;50.96
58367;BME280;57745;42.524;12.052;2022-08-19T04:21:25;96217.28;;;29.10;50.99
58367;BME280;57745;42.524;12.052;2022-08-19T04:23:51;96221.75;;;29.13;50.96
58367;BME280;57745;42.524;12.052;2022-08-19T04:26:20;96225.84;;;29.12;50.89
58367;BME280;57745;42.524;12.052;2022-08-19T04:28:46;96249.69;;;29.13;50.73
58367;BME280;57745;42.524;12.052;2022-08-19T04:31:23;96243.34;;;29.20;50.40
58367;BME280;57745;42.524;12.052;2022-08-19T04:33:53;96248.56;;;29.16;50.64
58367;BME280;57745;42.524;12.052;2022-08-19T04:36:23;96246.34;;;29.14;50.59
58367;BME280;57745;42.524;12.052;2022-08-19T04:38:52;96241.50;;;29.15;50.61
58367;BME280;57745;42.524;12.052;2022-08-19T04:41:18;96224.00;;;29.14;50.37
58367;BME280;57745;42.524;12.052;2022-08-19T04:44:02;96217.84;;;29.16;50.19
58367;BME280;57745;42.524;12.052;2022-08-19T04:46:29;96222.50;;;29.13;50.29
58367;BME280;57745;42.524;12.052;2022-08-19T04:48:56;96215.97;;;29.11;50.45
58367;BME280;57745;42.524;12.052;2022-08-19T04:51:22;96209.84;;;29.12;50.33
58367;BME280;57745;42.524;12.052;2022-08-19T04:53:48;96195.88;;;29.12;50.45
58367;BME280;57745;42.524;12.052;2022-08-19T04:56:16;96188.41;;;29.07;50.59
58367;BME280;57745;42.524;12.052;2022-08-19T04:58:43;96183.78;;;29.02;50.70
58367;BME280;57745;42.524;12.052;2022-08-19T05:01:13;96174.09;;;29.11;50.75
58367;BME280;57745;42.524;12.052;2022-08-19T05:03:39;96157.69;;;29.07;50.49
58367;BME280;57745;42.524;12.052;2022-08-19T05:06:10;96165.91;;;29.13;50.57
58367;BME280;57745;42.524;12.052;2022-08-19T05:08:37;96172.41;;;29.08;50.36
58367;BME280;57745;42.524;12.052;2022-08-19T05:11:15;96175.78;;;29.14;50.19
58367;BME280;57745;42.524;12.052;2022-08-19T05:13:42;96175.59;;;29.04;50.90
58367;BME280;57745;42.524;12.052;2022-08-19T05:16:09;96162.94;;;29.03;50.81
58367;BME280;57745;42.524;12.052;2022-08-19T05:18:35;96167.56;;;29.01;51.08
58367;BME280;57745;42.524;12.052;2022-08-19T05:21:20;96163.66;;;29.04;50.94
58367;BME280;57745;42.524;12.052;2022-08-19T05:24:05;96161.03;;;28.98;51.22
58367;BME280;57745;42.524;12.052;2022-08-19T05:26:35;96167.94;;;28.89;51.58
58367;BME280;57745;42.524;12.052;2022-08-19T05:29:01;96160.09;;;28.88;51.57
58367;BME280;57745;42.524;12.052;2022-08-19T05:31:26;96150.97;;;28.87;51.52
58367;BME280;57745;42.524;12.052;2022-08-19T05:33:52;96165.09;;;28.82;51.74
58367;BME280;57745;42.524;12.052;2022-08-19T05:36:18;96153.38;;;28.83;51.62
58367;BME280;57745;42.524;12.052;2022-08-19T05:38:45;96146.16;;;28.95;51.04
58367;BME280;57745;42.524;12.052;2022-08-19T05:41:13;96158.81;;;28.97;51.00
58367;BME280;57745;42.524;12.052;2022-08-19T05:43:39;96164.59;;;28.99;50.67
58367;BME280;57745;42.524;12.052;2022-08-19T05:46:06;96156.00;;;28.89;51.18
58367;BME280;57745;42.524;12.052;2022-08-19T05:48:33;96159.16;;;28.85;51.09
58367;BME280;57745;42.524;12.052;2022-08-19T05:51:04;96158.81;;;28.89;50.77
58367;BME280;57745;42.524;12.052;2022-08-19T05:53:31;96173.50;;;28.89;50.81
58367;BME280;57745;42.524;12.052;2022-08-19T05:55:57;96184.69;;;28.97;50.25
58367;BME280;57745;42.524;12.052;2022-08-19T05:58:23;96189.31;;;28.94;50.48
58367;BME280;57745;42.524;12.052;2022-08-19T06:00:49;96189.72;;;28.91;50.33
58367;BME280;57745;42.524;12.052;2022-08-19T06:03:15;96173.16;;;28.93;50.34
58367;BME280;57745;42.524;12.052;2022-08-19T06:05:41;96177.41;;;28.94;50.39
58367;BME280;57745;42.524;12.052;2022-08-19T06:08:07;96191.75;;;28.98;50.33
58367;BME280;57745;42.524;12.052;2022-08-19T06:10:33;96189.72;;;28.99;50.18
58367;BME280;57745;42.524;12.052;2022-08-19T06:12:58;96187.66;;;28.99;49.93
58367;BME280;57745;42.524;12.052;2022-08-19T06:15:24;96193.44;;;29.01;50.00
58367;BME280;57745;42.524;12.052;2022-08-19T06:17:53;96194.75;;;29.00;50.09
58367;BME280;57745;42.524;12.052;2022-08-19T06:20:19;96196.03;;;28.99;50.18
58367;BME280;57745;42.524;12.052;2022-08-19T06:23:20;96201.44;;;28.97;50.11
58367;BME280;57745;42.524;12.052;2022-08-19T06:26:40;96205.72;;;28.98;50.28
58367;BME280;57745;42.524;12.052;2022-08-19T06:29:08;96206.25;;;28.97;50.13
58367;BME280;57745;42.524;12.052;2022-08-19T06:31:36;96222.28;;;28.96;50.06
58367;BME280;57745;42.524;12.052;2022-08-19T06:34:37;96212.41;;;28.87;50.56
58367;BME280;57745;42.524;12.052;2022-08-19T06:37:07;96221.88;;;28.84;50.62
58367;BME280;57745;42.524;12.052;2022-08-19T06:39:36;96225.63;;;28.51;51.96
58367;BME280;57745;42.524;12.052;2022-08-19T06:42:05;96232.78;;;28.67;51.63
58367;BME280;57745;42.524;12.052;2022-08-19T06:44:34;96247.22;;;28.58;52.14
58367;BME280;57745;42.524;12.052;2022-08-19T06:47:06;96252.44;;;28.54;52.50
58367;BME280;57745;42.524;12.052;2022-08-19T06:49:32;96243.88;;;28.52;52.64
58367;BME280;57745;42.524;12.052;2022-08-19T06:51:59;96243.16;;;28.59;52.70
58367;BME280;57745;42.524;12.052;2022-08-19T06:54:25;96236.66;;;28.64;52.59
58367;BME280;57745;42.524;12.052;2022-08-19T06:56:54;96253.53;;;28.51;53.26
58367;BME280;57745;42.524;12.052;2022-08-19T06:59:21;96246.44;;;28.42;53.83
58367;BME280;57745;42.524;12.052;2022-08-19T07:01:50;96242.78;;;28.55;53.64
58367;BME280;57745;42.524;12.052;2022-08-19T07:04:19;96235.72;;;28.62;53.01
58367;BME280;57745;42.524;12.052;2022-08-19T07:06:45;96234.97;;;28.61;53.33
58367;BME280;57745;42.524;12.052;2022-08-19T07:09:13;96230.50;;;28.58;52.97
58367;BME280;57745;42.524;12.052;2022-08-19T07:11:44;96238.72;;;28.71;52.85
58367;BME280;57745;42.524;12.052;2022-08-19T07:14:10;96238.69;;;28.56;53.07
58367;BME280;57745;42.524;12.052;2022-08-19T07:16:35;96253.03;;;28.24;53.87
58367;BME280;57745;42.524;12.052;2022-08-19T07:19:01;96244.09;;;28.26;54.16
58367;BME280;57745;42.524;12.052;2022-08-19T07:21:28;96255.06;;;28.23;54.35
58367;BME280;57745;42.524;12.052;2022-08-19T07:23:55;96256.00;;;28.26;53.73
58367;BME280;57745;42.524;12.052;2022-08-19T07:26:24;96236.56;;;28.13;54.12
58367;BME280;57745;42.524;12.052;2022-08-19T07:28:51;96242.41;;;27.94;54.47
58367;BME280;57745;42.524;12.052;2022-08-19T07:31:20;96254.03;;;27.85;54.22
58367;BME280;57745;42.524;12.052;2022-08-19T07:33:48;96246.38;;;27.78;53.77
58367;BME280;57745;42.524;12.052;2022-08-19T07:36:16;96239.72;;;27.81;54.05
58367;BME280;57745;42.524;12.052;2022-08-19T07:38:44;96243.59;;;27.78;53.47
58367;BME280;57745;42.524;12.052;2022-08-19T07:41:12;96261.50;;;27.90;53.40
58367;BME280;57745;42.524;12.052;2022-08-19T07:43:39;96254.84;;;27.93;52.85
58367;BME280;57745;42.524;12.052;2022-08-19T07:46:05;96257.72;;;27.80;53.04
58367;BME280;57745;42.524;12.052;2022-08-19T07:48:31;96253.44;;;27.79;52.74
58367;BME280;57745;42.524;12.052;2022-08-19T07:51:01;96264.97;;;27.83;52.39
58367;BME280;57745;42.524;12.052;2022-08-19T07:53:29;96256.78;;;27.77;52.05
58367;BME280;57745;42.524;12.052;2022-08-19T07:55:55;96239.88;;;28.04;51.04
58367;BME280;57745;42.524;12.052;2022-08-19T07:58:25;96253.84;;;28.11;50.95
58367;BME280;57745;42.524;12.052;2022-08-19T08:00:51;96233.47;;;27.46;52.53
58367;BME280;57745;42.524;12.052;2022-08-19T08:03:19;96256.06;;;27.84;51.01
58367;BME280;57745;42.524;12.052;2022-08-19T08:05:45;96249.31;;;28.01;50.58
58367;BME280;57745;42.524;12.052;2022-08-19T08:08:30;96237.75;;;27.97;50.24
58367;BME280;57745;42.524;12.052;2022-08-19T08:11:10;96232.38;;;27.99;50.19
58367;BME280;57745;42.524;12.052;2022-08-19T08:13:36;96256.91;;;27.93;50.40
58367;BME280;57745;42.524;12.052;2022-08-19T08:16:02;96245.28;;;27.81;50.68
58367;BME280;57745;42.524;12.052;2022-08-19T08:18:28;96232.47;;;28.06;50.03
58367;BME280;57745;42.524;12.052;2022-08-19T08:20:57;96244.38;;;28.14;49.50
58367;BME280;57745;42.524;12.052;2022-08-19T08:23:24;96246.53;;;28.01;49.90
58367;BME280;57745;42.524;12.052;2022-08-19T08:25:56;96252.00;;;28.14;49.89
58367;BME280;57745;42.524;12.052;2022-08-19T08:28:22;96261.19;;;28.22;49.49
58367;BME280;57745;42.524;12.052;2022-08-19T08:30:49;96274.66;;;28.31;49.21
58367;BME280;57745;42.524;12.052;2022-08-19T08:33:23;96298.09;;;28.36;49.06
58367;BME280;57745;42.524;12.052;2022-08-19T08:35:49;96291.81;;;28.43;48.72
58367;BME280;57745;42.524;12.052;2022-08-19T08:38:15;96284.66;;;28.27;49.00
58367;BME280;57745;42.524;12.052;2022-08-19T08:40:52;96288.75;;;28.33;48.64
58367;BME280;57745;42.524;12.052;2022-08-19T08:43:35;96299.19;;;28.12;49.35
58367;BME280;57745;42.524;12.052;2022-08-19T08:46:08;96289.00;;;28.14;49.17
58367;BME280;57745;42.524;12.052;2022-08-19T08:51:02;96289.63;;;28.20;48.82
58367;BME280;57745;42.524;12.052;2022-08-19T08:53:30;96291.38;;;28.10;49.12
58367;BME280;57745;42.524;12.052;2022-08-19T08:55:58;96300.28;;;28.09;48.91
58367;BME280;57745;42.524;12.052;2022-08-19T08:58:31;96286.81;;;28.20;48.62
58367;BME280;57745;42.524;12.052;2022-08-19T09:00:58;96289.50;;;28.34;48.60
58367;BME280;57745;42.524;12.052;2022-08-19T09:03:27;96289.06;;;28.22;48.59
58367;BME280;57745;42.524;12.052;2022-08-19T09:14:28;96299.81;;;28.46;48.46
58367;BME280;57745;42.524;12.052;2022-08-19T09:16:57;96312.25;;;28.45;48.39
58367;BME280;57745;42.524;12.052;2022-08-19T09:19:23;96314.59;;;28.34;48.84
58367;BME280;57745;42.524;12.052;2022-08-19T09:21:48;96326.91;;;28.38;48.49
58367;BME280;57745;42.524;12.052;2022-08-19T09:24:15;96315.16;;;28.32;48.68
58367;BME280;57745;42.524;12.052;2022-08-19T09:26:41;96309.94;;;28.29;48.91
58367;BME280;57745;42.524;12.052;2022-08-19T09:29:09;96313.00;;;28.17;49.20
58367;BME280;57745;42.524;12.052;2022-08-19T09:31:35;96327.63;;;28.31;48.80
58367;BME280;57745;42.524;12.052;2022-08-19T09:34:00;96330.00;;;28.27;48.94
58367;BME280;57745;42.524;12.052;2022-08-19T09:36:30;96312.56;;;28.06;49.43
58367;BME280;57745;42.524;12.052;2022-08-19T09:39:02;96317.69;;;28.22;48.72
58367;BME280;57745;42.524;12.052;2022-08-19T09:41:29;96325.75;;;28.05;48.99
58367;BME280;57745;42.524;12.052;2022-08-19T09:43:56;96319.75;;;28.01;49.22
58367;BME280;57745;42.524;12.052;2022-08-19T09:46:24;96313.84;;;28.05;49.07
58367;BME280;57745;42.524;12.052;2022-08-19T09:48:51;96323.31;;;27.81;49.69
58367;BME280;57745;42.524;12.052;2022-08-19T09:51:20;96344.63;;;27.99;49.25
58367;BME280;57745;42.524;12.052;2022-08-19T09:53:47;96342.00;;;27.94;49.52
58367;BME280;57745;42.524;12.052;2022-08-19T09:56:16;96338.09;;;28.17;48.46
58367;BME280;57745;42.524;12.052;2022-08-19T09:58:42;96338.41;;;28.06;49.38
58367;BME280;57745;42.524;12.052;2022-08-19T10:01:08;96332.22;;;27.79;50.29
58367;BME280;57745;42.524;12.052;2022-08-19T10:03:35;96336.94;;;28.13;49.48
58367;BME280;57745;42.524;12.052;2022-08-19T10:06:04;96329.81;;;28.25;48.81
58367;BME280;57745;42.524;12.052;2022-08-19T10:08:33;96333.75;;;28.30;48.81
58367;BME280;57745;42.524;12.052;2022-08-19T10:10:59;96326.38;;;28.40;48.71
58367;BME280;57745;42.524;12.052;2022-08-19T10:13:28;96329.00;;;28.45;48.52
58367;BME280;57745;42.524;12.052;2022-08-19T10:15:57;96328.44;;;28.47;48.52
58367;BME280;57745;42.524;12.052;2022-08-19T10:18:27;96316.53;;;28.46;48.62
58367;BME280;57745;42.524;12.052;2022-08-19T10:21:18;96322.38;;;28.56;48.65
58367;BME280;57745;42.524;12.052;2022-08-19T10:23:47;96314.41;;;28.60;48.55
58367;BME280;57745;42.524;12.052;2022-08-19T10:26:16;96311.25;;;28.64;48.42
58367;BME280;57745;42.524;12.052;2022-08-19T10:28:42;96310.50;;;28.63;48.50
58367;BME280;57745;42.524;12.052;2022-08-19T10:31:11;96307.16;;;28.65;48.49
58367;BME280;57745;42.524;12.052;2022-08-19T10:33:37;96311.81;;;28.62;48.58
58367;BME280;57745;42.524;12.052;2022-08-19T10:36:06;96316.84;;;28.64;48.39
58367;BME280;57745;42.524;12.052;2022-08-19T10:38:31;96311.41;;;28.58;48.46
58367;BME280;57745;42.524;12.052;2022-08-19T10:41:07;96308.44;;;28.56;48.31
58367;BME280;57745;42.524;12.052;2022-08-19T10:43:32;96313.50;;;28.65;48.18
58367;BME280;57745;42.524;12.052;2022-08-19T10:46:02;96316.50;;;28.67;48.18
58367;BME280;57745;42.524;12.052;2022-08-19T10:48:28;96317.25;;;28.68;47.60
58367;BME280;57745;42.524;12.052;2022-08-19T10:50:54;96315.53;;;28.65;47.60
58367;BME280;57745;42.524;12.052;2022-08-19T10:53:41;96319.13;;;28.44;48.46
58367;BME280;57745;42.524;12.052;2022-08-19T10:56:06;96317.69;;;28.51;48.13
58367;BME280;57745;42.524;12.052;2022-08-19T10:58:50;96320.47;;;28.43;47.92
58367;BME280;57745;42.524;12.052;2022-08-19T11:01:15;96318.25;;;28.21;48.44
58367;BME280;57745;42.524;12.052;2022-08-19T11:03:41;96325.13;;;28.48;47.78
58367;BME280;57745;42.524;12.052;2022-08-19T11:06:08;96312.69;;;28.57;47.77
58367;BME280;57745;42.524;12.052;2022-08-19T11:08:35;96309.22;;;28.36;47.49
58367;BME280;57745;42.524;12.052;2022-08-19T11:11:04;96307.06;;;28.42;47.68
58367;BME280;57745;42.524;12.052;2022-08-19T11:13:33;96307.63;;;28.19;48.25
58367;BME280;57745;42.524;12.052;2022-08-19T11:16:07;96315.41;;;28.42;48.10
58367;BME280;57745;42.524;12.052;2022-08-19T11:18:33;96307.09;;;28.49;46.83
58367;BME280;57745;42.524;12.052;2022-08-19T11:21:08;96306.03;;;28.60;47.22
58367;BME280;57745;42.524;12.052;2022-08-19T11:23:34;96310.06;;;28.51;46.98
58367;BME280;57745;42.524;12.052;2022-08-19T11:26:00;96314.59;;;28.62;46.42
58367;BME280;57745;42.524;12.052;2022-08-19T11:28:26;96312.56;;;28.63;46.80
58367;BME280;57745;42.524;12.052;2022-08-19T11:30:51;96311.88;;;28.41;47.52
58367;BME280;57745;42.524;12.052;2022-08-19T11:33:17;96315.34;;;28.63;47.09
58367;BME280;57745;42.524;12.052;2022-08-19T11:35:43;96318.69;;;28.61;46.95
58367;BME280;57745;42.524;12.052;2022-08-19T11:38:08;96314.25;;;28.66;46.63
58367;BME280;57745;42.524;12.052;2022-08-19T11:40:33;96321.44;;;28.25;47.92
58367;BME280;57745;42.524;12.052;2022-08-19T11:42:59;96326.09;;;27.81;49.07
58367;BME280;57745;42.524;12.052;2022-08-19T11:45:26;96328.47;;;28.18;47.89
58367;BME280;57745;42.524;12.052;2022-08-19T11:47:53;96337.56;;;28.19;47.90
58367;BME280;57745;42.524;12.052;2022-08-19T11:50:19;96337.13;;;28.36;47.36
58367;BME280;57745;42.524;12.052;2022-08-19T11:52:46;96333.34;;;28.26;48.07
58367;BME280;57745;42.524;12.052;2022-08-19T11:55:13;96318.09;;;28.27;47.99
58367;BME280;57745;42.524;12.052;2022-08-19T11:57:39;96328.56;;;28.34;47.96
58367;BME280;57745;42.524;12.052;2022-08-19T12:00:09;96337.00;;;28.41;48.05
58367;BME280;57745;42.524;12.052;2022-08-19T12:02:37;96329.41;;;28.49;47.48
58367;BME280;57745;42.524;12.052;2022-08-19T12:05:03;96319.75;;;28.50;47.60
58367;BME280;57745;42.524;12.052;2022-08-19T12:07:29;96321.25;;;28.59;47.42
58367;BME280;57745;42.524;12.052;2022-08-19T12:09:59;96300.44;;;28.60;47.49
58367;BME280;57745;42.524;12.052;2022-08-19T12:12:24;96302.13;;;28.63;47.61
58367;BME280;57745;42.524;12.052;2022-08-19T12:14:51;96302.34;;;28.65;47.52
58367;BME280;57745;42.524;12.052;2022-08-19T12:17:30;96301.53;;;28.57;47.93
58367;BME280;57745;42.524;12.052;2022-08-19T12:19:56;96288.91;;;28.56;48.32
58367;BME280;57745;42.524;12.052;2022-08-19T12:22:22;96288.53;;;28.59;48.60
58367;BME280;57745;42.524;12.052;2022-08-19T12:24:48;96297.66;;;28.60;48.36
58367;BME280;57745;42.524;12.052;2022-08-19T12:27:16;96279.63;;;28.61;48.34
58367;BME280;57745;42.524;12.052;2022-08-19T12:29:41;96277.22;;;28.65;48.22
58367;BME280;57745;42.524;12.052;2022-08-19T12:32:07;96274.03;;;28.61;48.54
58367;BME280;57745;42.524;12.052;2022-08-19T12:34:34;96279.03;;;28.55;48.48
58367;BME280;57745;42.524;12.052;2022-08-19T12:37:02;96276.06;;;28.53;48.69
58367;BME280;57745;42.524;12.052;2022-08-19T12:39:28;96287.59;;;28.57;48.67
58367;BME280;57745;42.524;12.052;2022-08-19T12:41:55;96301.53;;;28.57;48.62
58367;BME280;57745;42.524;12.052;2022-08-19T12:44:22;96305.66;;;28.56;48.50
58367;BME280;57745;42.524;12.052;2022-08-19T12:46:48;96314.81;;;28.36;49.25
58367;BME280;57745;42.524;12.052;2022-08-19T12:49:14;96307.44;;;28.46;48.82
58367;BME280;57745;42.524;12.052;2022-08-19T12:51:41;96312.44;;;28.40;49.04
58367;BME280;57745;42.524;12.052;2022-08-19T12:54:07;96323.97;;;28.44;48.92
58367;BME280;57745;42.524;12.052;2022-08-19T12:56:33;96336.47;;;28.50;48.67
58367;BME280;57745;42.524;12.052;2022-08-19T12:59:03;96338.38;;;28.55;48.60
58367;BME280;57745;42.524;12.052;2022-08-19T13:01:29;96330.34;;;28.52;48.54
58367;BME280;57745;42.524;12.052;2022-08-19T13:03:58;96325.53;;;28.52;48.91
58367;BME280;57745;42.524;12.052;2022-08-19T13:06:25;96335.75;;;28.57;48.49
58367;BME280;57745;42.524;12.052;2022-08-19T13:08:51;96330.06;;;28.35;49.40
58367;BME280;57745;42.524;12.052;2022-08-19T13:11:19;96323.19;;;28.36;49.51